sensor_id;sensor_type;location;lat;lon;timestamp;P1;durP1;ratioP1;P2;durP2;ratioP2
14400;SDS011;7285;50.894;5.462;2023-06-14T00:00:47;0.20;;;0.20;;
14400;SDS011;7285;50.894;5.462;2023-06-14T00:03:14;0.40;;;0.40;;
14400;SDS011;7285;50.894;5.462;2023-06-14T00:05:42;0.30;;;0.30;;
14400;SDS011;7285;50.894;5.462;2023-06-14T00:08:11;0.43;;;0.43;;
14400;SDS011;7285;50.894;5.462;2023-06-14T00:10:38;0.53;;;0.53;;
14400;SDS011;7285;50.894;5.462;2023-06-14T00:13:08;0.50;;;0.50;;
14400;SDS011;7285;50.894;5.462;2023-06-14T00:15:36;0.30;;;0.30;;
14400;SDS011;7285;50.894;5.462;2023-06-14T00:18:03;0.40;;;0.40;;
14400;SDS011;7285;50.894;5.462;2023-06-14T00:20:31;0.47;;;0.47;;
14400;SDS011;7285;50.894;5.462;2023-06-14T00:22:59;0.20;;;0.20;;
14400;SDS011;7285;50.894;5.462;2023-06-14T00:25:26;0.30;;;0.30;;
14400;SDS011;7285;50.894;5.462;2023-06-14T00:27:54;0.40;;;0.40;;
14400;SDS011;7285;50.894;5.462;2023-06-14T00:30:23;1.03;;;1.03;;
14400;SDS011;7285;50.894;5.462;2023-06-14T00:32:50;0.50;;;0.50;;
14400;SDS011;7285;50.894;5.462;2023-06-14T00:35:17;0.43;;;0.43;;
14400;SDS011;7285;50.894;5.462;2023-06-14T00:37:44;0.43;;;0.43;;
14400;SDS011;7285;50.894;5.462;2023-06-14T00:40:11;0.30;;;0.30;;
14400;SDS011;7285;50.894;5.462;2023-06-14T00:42:38;0.57;;;0.57;;
14400;SDS011;7285;50.894;5.462;2023-06-14T00:45:05;0.40;;;0.40;;
14400;SDS011;7285;50.894;5.462;2023-06-14T00:47:34;0.60;;;0.60;;
14400;SDS011;7285;50.894;5.462;2023-06-14T00:50:04;0.40;;;0.40;;
14400;SDS011;7285;50.894;5.462;2023-06-14T00:52:33;0.40;;;0.40;;
14400;SDS011;7285;50.894;5.462;2023-06-14T00:55:00;0.20;;;0.20;;
14400;SDS011;7285;50.894;5.462;2023-06-14T00:57:28;0.50;;;0.50;;
14400;SDS011;7285;50.894;5.462;2023-06-14T00:59:55;0.40;;;0.40;;
14400;SDS011;7285;50.894;5.462;2023-06-14T01:02:22;0.30;;;0.30;;
14400;SDS011;7285;50.894;5.462;2023-06-14T01:04:51;0.40;;;0.40;;
14400;SDS011;7285;50.894;5.462;2023-06-14T01:07:23;0.30;;;0.30;;
14400;SDS011;7285;50.894;5.462;2023-06-14T01:10:01;0.53;;;0.53;;
14400;SDS011;7285;50.894;5.462;2023-06-14T01:12:39;0.30;;;0.30;;
14400;SDS011;7285;50.894;5.462;2023-06-14T01:15:17;0.30;;;0.30;;
14400;SDS011;7285;50.894;5.462;2023-06-14T01:17:44;0.50;;;0.50;;
14400;SDS011;7285;50.894;5.462;2023-06-14T01:20:14;0.67;;;0.67;;
14400;SDS011;7285;50.894;5.462;2023-06-14T01:22:50;0.70;;;0.70;;
14400;SDS011;7285;50.894;5.462;2023-06-14T01:25:18;0.60;;;0.60;;
14400;SDS011;7285;50.894;5.462;2023-06-14T01:27:48;0.40;;;0.40;;
14400;SDS011;7285;50.894;5.462;2023-06-14T01:30:16;0.30;;;0.30;;
14400;SDS011;7285;50.894;5.462;2023-06-14T01:32:44;0.50;;;0.50;;
14400;SDS011;7285;50.894;5.462;2023-06-14T01:35:12;0.40;;;0.40;;
14400;SDS011;7285;50.894;5.462;2023-06-14T01:37:39;0.70;;;0.70;;
14400;SDS011;7285;50.894;5.462;2023-06-14T01:40:09;1.20;;;1.10;;
14400;SDS011;7285;50.894;5.462;2023-06-14T01:42:38;0.50;;;0.50;;
14400;SDS011;7285;50.894;5.462;2023-06-14T01:45:06;0.50;;;0.50;;
14400;SDS011;7285;50.894;5.462;2023-06-14T01:47:34;0.30;;;0.30;;
14400;SDS011;7285;50.894;5.462;2023-06-14T01:50:02;0.70;;;0.70;;
14400;SDS011;7285;50.894;5.462;2023-06-14T01:52:30;0.60;;;0.60;;
14400;SDS011;7285;50.894;5.462;2023-06-14T01:54:57;0.60;;;0.60;;
14400;SDS011;7285;50.894;5.462;2023-06-14T01:57:28;0.40;;;0.40;;
14400;SDS011;7285;50.894;5.462;2023-06-14T01:59:55;0.50;;;0.50;;
14400;SDS011;7285;50.894;5.462;2023-06-14T02:02:22;0.53;;;0.53;;
14400;SDS011;7285;50.894;5.462;2023-06-14T02:04:49;0.70;;;0.70;;
14400;SDS011;7285;50.894;5.462;2023-06-14T02:07:17;0.40;;;0.40;;
14400;SDS011;7285;50.894;5.462;2023-06-14T02:09:44;0.40;;;0.40;;
14400;SDS011;7285;50.894;5.462;2023-06-14T02:12:11;0.30;;;0.30;;
14400;SDS011;7285;50.894;5.462;2023-06-14T02:14:39;0.57;;;0.57;;
14400;SDS011;7285;50.894;5.462;2023-06-14T02:17:06;0.70;;;0.70;;
14400;SDS011;7285;50.894;5.462;2023-06-14T02:19:33;0.43;;;0.43;;
14400;SDS011;7285;50.894;5.462;2023-06-14T02:22:00;0.40;;;0.40;;
14400;SDS011;7285;50.894;5.462;2023-06-14T02:24:27;0.50;;;0.50;;
14400;SDS011;7285;50.894;5.462;2023-06-14T02:26:54;0.80;;;0.80;;
14400;SDS011;7285;50.894;5.462;2023-06-14T02:29:20;0.40;;;0.40;;
14400;SDS011;7285;50.894;5.462;2023-06-14T02:31:49;0.93;;;0.93;;
14400;SDS011;7285;50.894;5.462;2023-06-14T02:34:16;0.50;;;0.50;;
14400;SDS011;7285;50.894;5.462;2023-06-14T02:36:43;0.60;;;0.60;;
14400;SDS011;7285;50.894;5.462;2023-06-14T02:39:10;0.50;;;0.50;;
14400;SDS011;7285;50.894;5.462;2023-06-14T02:41:37;0.50;;;0.50;;
14400;SDS011;7285;50.894;5.462;2023-06-14T02:44:04;5.30;;;1.27;;
14400;SDS011;7285;50.894;5.462;2023-06-14T02:46:31;0.50;;;0.50;;
14400;SDS011;7285;50.894;5.462;2023-06-14T02:49:00;0.40;;;0.40;;
14400;SDS011;7285;50.894;5.462;2023-06-14T02:51:27;0.40;;;0.40;;
14400;SDS011;7285;50.894;5.462;2023-06-14T02:53:54;0.60;;;0.60;;
14400;SDS011;7285;50.894;5.462;2023-06-14T02:56:21;0.70;;;0.70;;
14400;SDS011;7285;50.894;5.462;2023-06-14T02:58:47;0.50;;;0.50;;
14400;SDS011;7285;50.894;5.462;2023-06-14T03:01:15;0.40;;;0.40;;
14400;SDS011;7285;50.894;5.462;2023-06-14T03:03:43;0.50;;;0.50;;
14400;SDS011;7285;50.894;5.462;2023-06-14T03:06:11;0.50;;;0.50;;
14400;SDS011;7285;50.894;5.462;2023-06-14T03:08:39;0.63;;;0.63;;
14400;SDS011;7285;50.894;5.462;2023-06-14T03:11:06;0.70;;;0.70;;
14400;SDS011;7285;50.894;5.462;2023-06-14T03:13:34;0.40;;;0.40;;
14400;SDS011;7285;50.894;5.462;2023-06-14T03:16:01;0.50;;;0.50;;
14400;SDS011;7285;50.894;5.462;2023-06-14T03:18:31;0.50;;;0.50;;
14400;SDS011;7285;50.894;5.462;2023-06-14T03:21:00;0.70;;;0.70;;
14400;SDS011;7285;50.894;5.462;2023-06-14T03:23:29;0.50;;;0.50;;
14400;SDS011;7285;50.894;5.462;2023-06-14T03:25:56;0.67;;;0.67;;
14400;SDS011;7285;50.894;5.462;2023-06-14T03:28:23;0.70;;;0.70;;
14400;SDS011;7285;50.894;5.462;2023-06-14T03:30:50;0.70;;;0.70;;
14400;SDS011;7285;50.894;5.462;2023-06-14T03:33:17;0.50;;;0.50;;
14400;SDS011;7285;50.894;5.462;2023-06-14T03:35:44;0.57;;;0.57;;
14400;SDS011;7285;50.894;5.462;2023-06-14T03:38:11;0.50;;;0.50;;
14400;SDS011;7285;50.894;5.462;2023-06-14T03:40:40;0.50;;;0.50;;
14400;SDS011;7285;50.894;5.462;2023-06-14T03:43:07;1.27;;;1.27;;
14400;SDS011;7285;50.894;5.462;2023-06-14T03:45:34;0.53;;;0.53;;
14400;SDS011;7285;50.894;5.462;2023-06-14T03:48:00;0.60;;;0.60;;
14400;SDS011;7285;50.894;5.462;2023-06-14T03:50:28;0.57;;;0.57;;
14400;SDS011;7285;50.894;5.462;2023-06-14T03:52:55;1.03;;;0.53;;
14400;SDS011;7285;50.894;5.462;2023-06-14T03:55:22;0.57;;;0.57;;
14400;SDS011;7285;50.894;5.462;2023-06-14T03:57:51;0.50;;;0.50;;
14400;SDS011;7285;50.894;5.462;2023-06-14T04:00:18;0.70;;;0.70;;
14400;SDS011;7285;50.894;5.462;2023-06-14T04:02:46;0.73;;;0.73;;
14400;SDS011;7285;50.894;5.462;2023-06-14T04:05:13;0.60;;;0.60;;
14400;SDS011;7285;50.894;5.462;2023-06-14T04:07:41;0.63;;;0.63;;
14400;SDS011;7285;50.894;5.462;2023-06-14T04:10:10;0.80;;;0.80;;
14400;SDS011;7285;50.894;5.462;2023-06-14T04:12:37;0.50;;;0.50;;
14400;SDS011;7285;50.894;5.462;2023-06-14T04:15:06;3.53;;;1.00;;
14400;SDS011;7285;50.894;5.462;2023-06-14T04:17:34;0.60;;;0.60;;
14400;SDS011;7285;50.894;5.462;2023-06-14T04:20:01;0.60;;;0.60;;
14400;SDS011;7285;50.894;5.462;2023-06-14T04:22:31;0.60;;;0.60;;
14400;SDS011;7285;50.894;5.462;2023-06-14T04:24:58;0.60;;;0.60;;
14400;SDS011;7285;50.894;5.462;2023-06-14T04:27:25;0.90;;;0.90;;
14400;SDS011;7285;50.894;5.462;2023-06-14T04:29:56;0.77;;;0.77;;
14400;SDS011;7285;50.894;5.462;2023-06-14T04:32:26;0.50;;;0.50;;
14400;SDS011;7285;50.894;5.462;2023-06-14T04:34:54;0.60;;;0.60;;
14400;SDS011;7285;50.894;5.462;2023-06-14T04:37:22;0.80;;;0.80;;
14400;SDS011;7285;50.894;5.462;2023-06-14T04:39:49;0.70;;;0.70;;
14400;SDS011;7285;50.894;5.462;2023-06-14T04:42:16;0.53;;;0.53;;
14400;SDS011;7285;50.894;5.462;2023-06-14T04:44:46;0.53;;;0.53;;
14400;SDS011;7285;50.894;5.462;2023-06-14T04:47:13;0.80;;;0.80;;
14400;SDS011;7285;50.894;5.462;2023-06-14T04:49:42;0.70;;;0.70;;
14400;SDS011;7285;50.894;5.462;2023-06-14T04:52:09;1.30;;;1.20;;
14400;SDS011;7285;50.894;5.462;2023-06-14T04:54:38;0.73;;;0.73;;
14400;SDS011;7285;50.894;5.462;2023-06-14T04:57:07;0.70;;;0.70;;
14400;SDS011;7285;50.894;5.462;2023-06-14T04:59:38;1.20;;;1.20;;
14400;SDS011;7285;50.894;5.462;2023-06-14T05:02:05;0.70;;;0.70;;
14400;SDS011;7285;50.894;5.462;2023-06-14T05:04:33;0.93;;;0.93;;
14400;SDS011;7285;50.894;5.462;2023-06-14T05:07:06;1.00;;;1.00;;
14400;SDS011;7285;50.894;5.462;2023-06-14T05:09:33;0.70;;;0.70;;
14400;SDS011;7285;50.894;5.462;2023-06-14T05:12:00;0.57;;;0.57;;
14400;SDS011;7285;50.894;5.462;2023-06-14T05:14:27;0.73;;;0.73;;
14400;SDS011;7285;50.894;5.462;2023-06-14T05:16:54;0.70;;;0.70;;
14400;SDS011;7285;50.894;5.462;2023-06-14T05:19:22;0.50;;;0.50;;
14400;SDS011;7285;50.894;5.462;2023-06-14T05:21:49;0.40;;;0.40;;
14400;SDS011;7285;50.894;5.462;2023-06-14T05:24:17;0.73;;;0.73;;
14400;SDS011;7285;50.894;5.462;2023-06-14T05:26:44;0.50;;;0.50;;
14400;SDS011;7285;50.894;5.462;2023-06-14T05:29:11;0.40;;;0.40;;
14400;SDS011;7285;50.894;5.462;2023-06-14T05:31:39;0.53;;;0.53;;
14400;SDS011;7285;50.894;5.462;2023-06-14T05:34:06;0.63;;;0.63;;
14400;SDS011;7285;50.894;5.462;2023-06-14T05:36:33;0.40;;;0.40;;
14400;SDS011;7285;50.894;5.462;2023-06-14T05:39:02;0.40;;;0.40;;
14400;SDS011;7285;50.894;5.462;2023-06-14T05:41:31;0.67;;;0.67;;
14400;SDS011;7285;50.894;5.462;2023-06-14T05:43:58;0.40;;;0.40;;
14400;SDS011;7285;50.894;5.462;2023-06-14T05:46:25;0.60;;;0.60;;
14400;SDS011;7285;50.894;5.462;2023-06-14T05:48:53;0.40;;;0.40;;
14400;SDS011;7285;50.894;5.462;2023-06-14T05:51:21;0.30;;;0.30;;
14400;SDS011;7285;50.894;5.462;2023-06-14T05:53:50;0.40;;;0.40;;
14400;SDS011;7285;50.894;5.462;2023-06-14T05:56:17;0.40;;;0.40;;
14400;SDS011;7285;50.894;5.462;2023-06-14T05:58:46;0.40;;;0.40;;
14400;SDS011;7285;50.894;5.462;2023-06-14T06:01:13;0.70;;;0.70;;
14400;SDS011;7285;50.894;5.462;2023-06-14T06:03:40;0.30;;;0.30;;
14400;SDS011;7285;50.894;5.462;2023-06-14T06:06:10;1.13;;;1.13;;
14400;SDS011;7285;50.894;5.462;2023-06-14T06:08:38;0.50;;;0.50;;
14400;SDS011;7285;50.894;5.462;2023-06-14T06:11:05;0.40;;;0.40;;
14400;SDS011;7285;50.894;5.462;2023-06-14T06:13:32;0.40;;;0.40;;
14400;SDS011;7285;50.894;5.462;2023-06-14T06:16:01;0.73;;;0.73;;
14400;SDS011;7285;50.894;5.462;2023-06-14T06:18:28;0.40;;;0.40;;
14400;SDS011;7285;50.894;5.462;2023-06-14T06:20:55;1.90;;;0.77;;
14400;SDS011;7285;50.894;5.462;2023-06-14T06:23:22;5.07;;;0.60;;
14400;SDS011;7285;50.894;5.462;2023-06-14T06:25:49;0.50;;;0.50;;
14400;SDS011;7285;50.894;5.462;2023-06-14T06:28:17;0.57;;;0.57;;
14400;SDS011;7285;50.894;5.462;2023-06-14T06:30:43;0.40;;;0.40;;
14400;SDS011;7285;50.894;5.462;2023-06-14T06:33:12;0.43;;;0.43;;
14400;SDS011;7285;50.894;5.462;2023-06-14T06:35:39;0.80;;;0.80;;
14400;SDS011;7285;50.894;5.462;2023-06-14T06:38:06;0.33;;;0.33;;
14400;SDS011;7285;50.894;5.462;2023-06-14T06:40:34;0.53;;;0.53;;
14400;SDS011;7285;50.894;5.462;2023-06-14T06:43:01;0.30;;;0.30;;
14400;SDS011;7285;50.894;5.462;2023-06-14T06:45:28;0.50;;;0.50;;
14400;SDS011;7285;50.894;5.462;2023-06-14T06:47:55;0.40;;;0.40;;
14400;SDS011;7285;50.894;5.462;2023-06-14T06:50:24;0.53;;;0.53;;
14400;SDS011;7285;50.894;5.462;2023-06-14T06:52:51;0.60;;;0.60;;
14400;SDS011;7285;50.894;5.462;2023-06-14T06:55:18;2.47;;;0.40;;
14400;SDS011;7285;50.894;5.462;2023-06-14T06:57:45;0.60;;;0.60;;
14400;SDS011;7285;50.894;5.462;2023-06-14T07:00:12;0.63;;;0.63;;
14400;SDS011;7285;50.894;5.462;2023-06-14T07:02:39;0.63;;;0.63;;
14400;SDS011;7285;50.894;5.462;2023-06-14T07:05:06;0.50;;;0.50;;
14400;SDS011;7285;50.894;5.462;2023-06-14T07:07:35;1.13;;;1.13;;
14400;SDS011;7285;50.894;5.462;2023-06-14T07:10:02;0.40;;;0.40;;
14400;SDS011;7285;50.894;5.462;2023-06-14T07:12:30;0.40;;;0.40;;
14400;SDS011;7285;50.894;5.462;2023-06-14T07:14:58;0.63;;;0.63;;
14400;SDS011;7285;50.894;5.462;2023-06-14T07:17:25;0.67;;;0.67;;
14400;SDS011;7285;50.894;5.462;2023-06-14T07:19:53;0.40;;;0.40;;
14400;SDS011;7285;50.894;5.462;2023-06-14T07:22:20;0.53;;;0.53;;
14400;SDS011;7285;50.894;5.462;2023-06-14T07:24:49;0.50;;;0.50;;
14400;SDS011;7285;50.894;5.462;2023-06-14T07:27:16;0.97;;;0.93;;
14400;SDS011;7285;50.894;5.462;2023-06-14T07:29:43;0.50;;;0.50;;
14400;SDS011;7285;50.894;5.462;2023-06-14T07:32:09;0.30;;;0.30;;
14400;SDS011;7285;50.894;5.462;2023-06-14T07:34:36;0.70;;;0.70;;
14400;SDS011;7285;50.894;5.462;2023-06-14T07:37:03;0.50;;;0.50;;
14400;SDS011;7285;50.894;5.462;2023-06-14T07:39:30;0.23;;;0.23;;
14400;SDS011;7285;50.894;5.462;2023-06-14T07:41:58;0.40;;;0.40;;
14400;SDS011;7285;50.894;5.462;2023-06-14T07:44:27;0.60;;;0.60;;
14400;SDS011;7285;50.894;5.462;2023-06-14T07:46:56;0.40;;;0.40;;
14400;SDS011;7285;50.894;5.462;2023-06-14T07:49:24;0.30;;;0.30;;
14400;SDS011;7285;50.894;5.462;2023-06-14T07:51:51;0.30;;;0.30;;
14400;SDS011;7285;50.894;5.462;2023-06-14T07:54:18;0.83;;;0.83;;
14400;SDS011;7285;50.894;5.462;2023-06-14T07:56:49;0.70;;;0.70;;
14400;SDS011;7285;50.894;5.462;2023-06-14T07:59:18;0.60;;;0.60;;
14400;SDS011;7285;50.894;5.462;2023-06-14T08:01:45;0.40;;;0.40;;
14400;SDS011;7285;50.894;5.462;2023-06-14T08:04:13;0.60;;;0.60;;
14400;SDS011;7285;50.894;5.462;2023-06-14T08:06:39;0.53;;;0.53;;
14400;SDS011;7285;50.894;5.462;2023-06-14T08:09:09;0.73;;;0.73;;
14400;SDS011;7285;50.894;5.462;2023-06-14T08:11:36;0.40;;;0.40;;
14400;SDS011;7285;50.894;5.462;2023-06-14T08:14:03;0.77;;;0.77;;
14400;SDS011;7285;50.894;5.462;2023-06-14T08:16:31;0.70;;;0.70;;
14400;SDS011;7285;50.894;5.462;2023-06-14T08:18:58;0.57;;;0.57;;
14400;SDS011;7285;50.894;5.462;2023-06-14T08:21:26;1.03;;;0.50;;
14400;SDS011;7285;50.894;5.462;2023-06-14T08:23:54;0.33;;;0.33;;
14400;SDS011;7285;50.894;5.462;2023-06-14T08:26:21;0.30;;;0.30;;
14400;SDS011;7285;50.894;5.462;2023-06-14T08:28:48;0.27;;;0.27;;
14400;SDS011;7285;50.894;5.462;2023-06-14T08:31:15;0.40;;;0.40;;
14400;SDS011;7285;50.894;5.462;2023-06-14T08:33:43;0.13;;;0.13;;
14400;SDS011;7285;50.894;5.462;2023-06-14T08:36:10;0.77;;;0.77;;
14400;SDS011;7285;50.894;5.462;2023-06-14T08:38:37;0.40;;;0.40;;
14400;SDS011;7285;50.894;5.462;2023-06-14T08:41:05;0.40;;;0.40;;
14400;SDS011;7285;50.894;5.462;2023-06-14T08:43:32;0.20;;;0.20;;
14400;SDS011;7285;50.894;5.462;2023-06-14T08:46:00;8.17;;;0.37;;
14400;SDS011;7285;50.894;5.462;2023-06-14T08:48:29;0.30;;;0.30;;
14400;SDS011;7285;50.894;5.462;2023-06-14T08:51:00;0.40;;;0.40;;
14400;SDS011;7285;50.894;5.462;2023-06-14T08:53:28;0.20;;;0.20;;
14400;SDS011;7285;50.894;5.462;2023-06-14T08:55:57;0.40;;;0.40;;
14400;SDS011;7285;50.894;5.462;2023-06-14T08:58:26;0.30;;;0.30;;
14400;SDS011;7285;50.894;5.462;2023-06-14T09:00:54;0.37;;;0.37;;
14400;SDS011;7285;50.894;5.462;2023-06-14T09:03:22;0.27;;;0.27;;
14400;SDS011;7285;50.894;5.462;2023-06-14T09:05:55;0.30;;;0.30;;
14400;SDS011;7285;50.894;5.462;2023-06-14T09:08:25;0.20;;;0.20;;
14400;SDS011;7285;50.894;5.462;2023-06-14T09:10:55;0.50;;;0.50;;
14400;SDS011;7285;50.894;5.462;2023-06-14T09:13:23;0.32;;;0.32;;
14400;SDS011;7285;50.894;5.462;2023-06-14T09:15:50;0.57;;;0.57;;
14400;SDS011;7285;50.894;5.462;2023-06-14T09:18:17;0.40;;;0.40;;
14400;SDS011;7285;50.894;5.462;2023-06-14T09:20:46;0.20;;;0.20;;
14400;SDS011;7285;50.894;5.462;2023-06-14T09:23:13;0.30;;;0.30;;
14400;SDS011;7285;50.894;5.462;2023-06-14T09:25:47;0.20;;;0.20;;
14400;SDS011;7285;50.894;5.462;2023-06-14T09:28:14;0.30;;;0.30;;
14400;SDS011;7285;50.894;5.462;2023-06-14T09:30:41;0.30;;;0.30;;
14400;SDS011;7285;50.894;5.462;2023-06-14T09:33:08;0.30;;;0.30;;
14400;SDS011;7285;50.894;5.462;2023-06-14T09:35:35;0.60;;;0.60;;
14400;SDS011;7285;50.894;5.462;2023-06-14T09:38:02;0.30;;;0.30;;
14400;SDS011;7285;50.894;5.462;2023-06-14T09:40:31;0.28;;;0.28;;
14400;SDS011;7285;50.894;5.462;2023-06-14T09:43:02;0.20;;;0.20;;
14400;SDS011;7285;50.894;5.462;2023-06-14T09:45:31;0.20;;;0.20;;
14400;SDS011;7285;50.894;5.462;2023-06-14T09:47:59;0.30;;;0.30;;
14400;SDS011;7285;50.894;5.462;2023-06-14T09:50:27;0.32;;;0.32;;
14400;SDS011;7285;50.894;5.462;2023-06-14T09:52:54;0.20;;;0.20;;
14400;SDS011;7285;50.894;5.462;2023-06-14T09:55:28;0.25;;;0.25;;
14400;SDS011;7285;50.894;5.462;2023-06-14T09:57:57;0.30;;;0.30;;
14400;SDS011;7285;50.894;5.462;2023-06-14T10:00:28;0.45;;;0.45;;
14400;SDS011;7285;50.894;5.462;2023-06-14T10:02:58;0.10;;;0.10;;
14400;SDS011;7285;50.894;5.462;2023-06-14T10:05:30;0.10;;;0.10;;
14400;SDS011;7285;50.894;5.462;2023-06-14T10:07:59;0.20;;;0.20;;
14400;SDS011;7285;50.894;5.462;2023-06-14T10:10:29;0.15;;;0.15;;
14400;SDS011;7285;50.894;5.462;2023-06-14T10:12:57;0.45;;;0.45;;
14400;SDS011;7285;50.894;5.462;2023-06-14T10:15:27;0.30;;;0.30;;
14400;SDS011;7285;50.894;5.462;2023-06-14T10:18:01;0.10;;;0.10;;
14400;SDS011;7285;50.894;5.462;2023-06-14T10:20:37;0.38;;;0.35;;
14400;SDS011;7285;50.894;5.462;2023-06-14T10:23:10;0.05;;;0.05;;
14400;SDS011;7285;50.894;5.462;2023-06-14T10:25:42;0.20;;;0.20;;
14400;SDS011;7285;50.894;5.462;2023-06-14T10:28:16;0.10;;;0.10;;
14400;SDS011;7285;50.894;5.462;2023-06-14T10:31:03;0.20;;;0.20;;
14400;SDS011;7285;50.894;5.462;2023-06-14T10:33:32;0.80;;;0.30;;
14400;SDS011;7285;50.894;5.462;2023-06-14T10:38:59;0.25;;;0.25;;
14400;SDS011;7285;50.894;5.462;2023-06-14T10:41:32;0.52;;;0.52;;
14400;SDS011;7285;50.894;5.462;2023-06-14T10:47:13;0.00;;;0.00;;
14400;SDS011;7285;50.894;5.462;2023-06-14T10:49:49;0.10;;;0.10;;
14400;SDS011;7285;50.894;5.462;2023-06-14T10:52:20;0.10;;;0.10;;
14400;SDS011;7285;50.894;5.462;2023-06-14T10:55:08;0.20;;;0.20;;
14400;SDS011;7285;50.894;5.462;2023-06-14T10:57:38;0.30;;;0.30;;
14400;SDS011;7285;50.894;5.462;2023-06-14T11:00:06;0.10;;;0.10;;
14400;SDS011;7285;50.894;5.462;2023-06-14T11:05:55;0.30;;;0.30;;
14400;SDS011;7285;50.894;5.462;2023-06-14T11:11:36;0.00;;;0.00;;
14400;SDS011;7285;50.894;5.462;2023-06-14T11:14:08;0.30;;;0.30;;
14400;SDS011;7285;50.894;5.462;2023-06-14T11:16:35;0.10;;;0.10;;
14400;SDS011;7285;50.894;5.462;2023-06-14T11:19:03;0.10;;;0.10;;
14400;SDS011;7285;50.894;5.462;2023-06-14T11:21:32;0.17;;;0.17;;
14400;SDS011;7285;50.894;5.462;2023-06-14T11:23:59;0.13;;;0.13;;
14400;SDS011;7285;50.894;5.462;2023-06-14T11:26:27;0.00;;;0.00;;
14400;SDS011;7285;50.894;5.462;2023-06-14T11:28:55;0.00;;;0.00;;
14400;SDS011;7285;50.894;5.462;2023-06-14T11:31:23;0.10;;;0.10;;
14400;SDS011;7285;50.894;5.462;2023-06-14T11:33:50;0.20;;;0.10;;
14400;SDS011;7285;50.894;5.462;2023-06-14T11:36:19;0.10;;;0.10;;
14400;SDS011;7285;50.894;5.462;2023-06-14T11:38:47;0.10;;;0.10;;
14400;SDS011;7285;50.894;5.462;2023-06-14T11:41:15;0.10;;;0.10;;
14400;SDS011;7285;50.894;5.462;2023-06-14T11:43:42;0.10;;;0.10;;
14400;SDS011;7285;50.894;5.462;2023-06-14T11:46:12;0.10;;;0.10;;
14400;SDS011;7285;50.894;5.462;2023-06-14T11:48:40;0.00;;;0.00;;
14400;SDS011;7285;50.894;5.462;2023-06-14T11:51:08;0.20;;;0.20;;
14400;SDS011;7285;50.894;5.462;2023-06-14T11:53:36;0.40;;;0.40;;
14400;SDS011;7285;50.894;5.462;2023-06-14T11:56:05;0.30;;;0.30;;
14400;SDS011;7285;50.894;5.462;2023-06-14T11:58:32;0.30;;;0.30;;
14400;SDS011;7285;50.894;5.462;2023-06-14T12:00:59;0.10;;;0.10;;
14400;SDS011;7285;50.894;5.462;2023-06-14T12:03:27;0.10;;;0.10;;
14400;SDS011;7285;50.894;5.462;2023-06-14T12:06:04;0.00;;;0.00;;
14400;SDS011;7285;50.894;5.462;2023-06-14T12:08:33;0.10;;;0.10;;
14400;SDS011;7285;50.894;5.462;2023-06-14T12:11:06;0.20;;;0.20;;
14400;SDS011;7285;50.894;5.462;2023-06-14T12:13:37;0.10;;;0.10;;
14400;SDS011;7285;50.894;5.462;2023-06-14T12:16:06;0.00;;;0.00;;
14400;SDS011;7285;50.894;5.462;2023-06-14T12:18:34;0.10;;;0.10;;
14400;SDS011;7285;50.894;5.462;2023-06-14T12:21:02;0.30;;;0.30;;
14400;SDS011;7285;50.894;5.462;2023-06-14T12:23:44;0.20;;;0.20;;
14400;SDS011;7285;50.894;5.462;2023-06-14T12:26:13;0.05;;;0.05;;
14400;SDS011;7285;50.894;5.462;2023-06-14T12:28:42;0.10;;;0.10;;
14400;SDS011;7285;50.894;5.462;2023-06-14T12:31:09;0.10;;;0.10;;
14400;SDS011;7285;50.894;5.462;2023-06-14T12:33:37;0.00;;;0.00;;
14400;SDS011;7285;50.894;5.462;2023-06-14T12:36:04;0.10;;;0.10;;
14400;SDS011;7285;50.894;5.462;2023-06-14T12:38:32;0.10;;;0.10;;
14400;SDS011;7285;50.894;5.462;2023-06-14T12:41:00;0.15;;;0.15;;
14400;SDS011;7285;50.894;5.462;2023-06-14T12:43:28;0.10;;;0.10;;
14400;SDS011;7285;50.894;5.462;2023-06-14T12:45:55;0.20;;;0.20;;
14400;SDS011;7285;50.894;5.462;2023-06-14T12:48:22;0.15;;;0.15;;
14400;SDS011;7285;50.894;5.462;2023-06-14T12:50:49;0.10;;;0.10;;
14400;SDS011;7285;50.894;5.462;2023-06-14T12:53:16;0.10;;;0.10;;
14400;SDS011;7285;50.894;5.462;2023-06-14T12:55:43;0.03;;;0.03;;
14400;SDS011;7285;50.894;5.462;2023-06-14T12:58:10;0.20;;;0.20;;
14400;SDS011;7285;50.894;5.462;2023-06-14T13:00:40;0.10;;;0.10;;
14400;SDS011;7285;50.894;5.462;2023-06-14T13:03:07;0.45;;;0.45;;
14400;SDS011;7285;50.894;5.462;2023-06-14T13:05:34;0.10;;;0.10;;
14400;SDS011;7285;50.894;5.462;2023-06-14T13:08:02;1.75;;;0.10;;
14400;SDS011;7285;50.894;5.462;2023-06-14T13:10:29;0.03;;;0.03;;
14400;SDS011;7285;50.894;5.462;2023-06-14T13:12:56;0.05;;;0.05;;
14400;SDS011;7285;50.894;5.462;2023-06-14T13:15:25;0.17;;;0.17;;
14400;SDS011;7285;50.894;5.462;2023-06-14T13:17:53;0.20;;;0.20;;
14400;SDS011;7285;50.894;5.462;2023-06-14T13:21:42;0.20;;;0.20;;
14400;SDS011;7285;50.894;5.462;2023-06-14T13:24:09;0.10;;;0.10;;
14400;SDS011;7285;50.894;5.462;2023-06-14T13:26:35;0.20;;;0.20;;
14400;SDS011;7285;50.894;5.462;2023-06-14T13:29:02;0.75;;;0.55;;
14400;SDS011;7285;50.894;5.462;2023-06-14T13:31:29;0.50;;;0.50;;
14400;SDS011;7285;50.894;5.462;2023-06-14T13:33:56;0.10;;;0.05;;
14400;SDS011;7285;50.894;5.462;2023-06-14T13:36:23;0.10;;;0.10;;
14400;SDS011;7285;50.894;5.462;2023-06-14T13:38:51;0.22;;;0.08;;
14400;SDS011;7285;50.894;5.462;2023-06-14T13:41:20;0.00;;;0.00;;
14400;SDS011;7285;50.894;5.462;2023-06-14T13:43:47;0.10;;;0.10;;
14400;SDS011;7285;50.894;5.462;2023-06-14T13:46:13;0.10;;;0.10;;
14400;SDS011;7285;50.894;5.462;2023-06-14T13:48:40;0.20;;;0.20;;
14400;SDS011;7285;50.894;5.462;2023-06-14T13:51:07;0.38;;;0.35;;
14400;SDS011;7285;50.894;5.462;2023-06-14T13:53:34;0.10;;;0.08;;
14400;SDS011;7285;50.894;5.462;2023-06-14T13:56:02;0.10;;;0.10;;
14400;SDS011;7285;50.894;5.462;2023-06-14T13:58:30;0.20;;;0.20;;
14400;SDS011;7285;50.894;5.462;2023-06-14T14:00:57;0.63;;;0.17;;
14400;SDS011;7285;50.894;5.462;2023-06-14T14:03:24;0.10;;;0.10;;
14400;SDS011;7285;50.894;5.462;2023-06-14T14:05:51;0.10;;;0.10;;
14400;SDS011;7285;50.894;5.462;2023-06-14T14:08:18;0.00;;;0.00;;
14400;SDS011;7285;50.894;5.462;2023-06-14T14:10:45;0.55;;;0.55;;
14400;SDS011;7285;50.894;5.462;2023-06-14T14:13:14;0.00;;;0.00;;
14400;SDS011;7285;50.894;5.462;2023-06-14T14:15:41;0.00;;;0.00;;
14400;SDS011;7285;50.894;5.462;2023-06-14T14:18:07;0.10;;;0.10;;
14400;SDS011;7285;50.894;5.462;2023-06-14T14:20:34;0.22;;;0.22;;
14400;SDS011;7285;50.894;5.462;2023-06-14T14:23:01;0.10;;;0.10;;
14400;SDS011;7285;50.894;5.462;2023-06-14T14:25:28;0.10;;;0.10;;
14400;SDS011;7285;50.894;5.462;2023-06-14T14:27:55;0.00;;;0.00;;
14400;SDS011;7285;50.894;5.462;2023-06-14T14:30:23;0.05;;;0.05;;
14400;SDS011;7285;50.894;5.462;2023-06-14T14:32:50;0.10;;;0.10;;
14400;SDS011;7285;50.894;5.462;2023-06-14T14:35:17;0.20;;;0.20;;
14400;SDS011;7285;50.894;5.462;2023-06-14T14:37:44;0.00;;;0.00;;
14400;SDS011;7285;50.894;5.462;2023-06-14T14:40:12;0.10;;;0.10;;
14400;SDS011;7285;50.894;5.462;2023-06-14T14:42:39;0.00;;;0.00;;
14400;SDS011;7285;50.894;5.462;2023-06-14T14:45:06;0.00;;;0.00;;
14400;SDS011;7285;50.894;5.462;2023-06-14T14:47:35;0.22;;;0.20;;
14400;SDS011;7285;50.894;5.462;2023-06-14T14:50:02;0.20;;;0.20;;
14400;SDS011;7285;50.894;5.462;2023-06-14T14:52:29;0.10;;;0.10;;
14400;SDS011;7285;50.894;5.462;2023-06-14T14:54:56;0.10;;;0.10;;
14400;SDS011;7285;50.894;5.462;2023-06-14T14:57:23;0.10;;;0.10;;
14400;SDS011;7285;50.894;5.462;2023-06-14T14:59:50;0.38;;;0.30;;
14400;SDS011;7285;50.894;5.462;2023-06-14T15:02:17;0.15;;;0.15;;
14400;SDS011;7285;50.894;5.462;2023-06-14T15:04:45;0.00;;;0.00;;
14400;SDS011;7285;50.894;5.462;2023-06-14T15:07:12;0.10;;;0.10;;
14400;SDS011;7285;50.894;5.462;2023-06-14T15:09:39;0.20;;;0.20;;
14400;SDS011;7285;50.894;5.462;2023-06-14T15:12:07;0.05;;;0.05;;
14400;SDS011;7285;50.894;5.462;2023-06-14T15:14:35;0.20;;;0.20;;
14400;SDS011;7285;50.894;5.462;2023-06-14T15:17:02;0.28;;;0.28;;
14400;SDS011;7285;50.894;5.462;2023-06-14T15:19:29;0.10;;;0.10;;